Aérodrome :
LOGIN :

S'inscrire | Disclaimer

   EN    FR    IT 

 










Légende :    VFR   VFR Marginal   IFR   IFR Intensif   IFR Très Intensif
Visi : 
Plafond : 
>= 8 km
>= 3000ft
5 à 8 km
1000 à 3000 ft
1500m à 5 km
500 à 1000 ft
800 à 1500m
200 à 500 ft
< 800m
< 200 ft
Symboles :   Orages  Brouillard  Fortes neiges  Fortes précipitations  Vent > 20 kt
SIGMETs :   Divers  Orages  Givrage  Turbulence  Onde Orograph.  Cendres Volcan.






- Altitude de l'aérodrome : 184 ft
- Code IATA : NLV


UKON - Mykolaiv

DERNIER METAR :
  • 250700Z 28003MPS 260V320 CAVOK M01/M05 Q1018 R22/090075 NOSIG

METARs EXPIRÉS :
  • 250630Z 28003MPS CAVOK M02/M06 Q1018 R22/090075 NOSIG
  • 250600Z 29004MPS CAVOK M04/M06 Q1018 NOSIG
  • 250530Z 29003MPS 9000 NSC M04/M07 Q1018 NOSIG
  • 250500Z 28003MPS CAVOK M04/M07 Q1018 NOSIG
  • 250430Z 28003MPS CAVOK M02/M06 Q1018 NOSIG

TAF TAF UKON
Valide du 25 à 06h jusqu'au 25 à 15h UTC


250502Z 2506/2515 28003MPS 9999 SCT007 TX06/2512Z TNM03/2506Z
TEMPO 2506/2509 2100 BR SCT003 BKN007



MET'MAP, la Météo Aéronautique d'un coup d'oeil ! - Copyright ORBIFLY Décembre 2007 - Disclaimer

ORBIFLY MET'MAP TEAM :

Programmation & Développement : Alexandra Zaïnal
Sur une idée originale de : Baudouin d'Aumeries
Assistance à la programmation : Marc-Olivier Méhu
Soutien technique & logistique : Manuel Goepfert

Contact : metmap@orbifly.com




SOURCES & CREDITS :

   NOAA